Time;durP1;ratioP1;P1;durP2;ratioP2;P2;SDS_P1;SDS_P2;PMS_P1;PMS_P2;Temp;Humidity;BMP_temperature;BMP_pressure;BME280_temperature;BME280_humidity;BME280_pressure;Samples;Min_cycle;Max_cycle;Signal;HPM_P1;HPM_P2
2022/01/25 00:30:27;;;;;;;40.60;21.50;;;;;;;-2.83;51.31;101683.97;7712075;32;40134;-77
2022/01/25 00:34:43;;;;;;;42.45;21.55;;;;;;;-2.91;52.14;101687.34;7711882;32;37896;-76
2022/01/25 00:39:00;;;;;;;48.40;21.90;;;;;;;-2.72;51.54;101683.88;7711831;32;38071;-77
2022/01/25 00:43:16;;;;;;;41.60;22.65;;;;;;;-3.04;51.65;101679.56;7711451;32;39018;-77
2022/01/25 00:47:32;;;;;;;47.03;21.62;;;;;;;-2.96;51.63;101683.41;7711230;32;39976;-77
2022/01/25 00:56:05;;;;;;;47.20;22.70;;;;;;;-3.12;51.76;101675.91;7711657;32;37957;-76
2022/01/25 01:00:21;;;;;;;48.47;24.42;;;;;;;-3.36;53.18;101678.91;7711645;32;40089;-77
2022/01/25 01:04:38;;;;;;;50.12;24.65;;;;;;;-3.33;53.65;101667.97;7711343;32;39904;-76
2022/01/25 01:08:55;;;;;;;54.00;24.58;;;;;;;-2.93;52.28;101659.09;7711509;32;37723;-76
2022/01/25 01:29:02;;;;;;;42.60;22.52;;;;;;;-2.82;51.91;101650.97;7711449;32;40070;-77
2022/01/25 01:31:50;;;;;;;40.30;23.12;;;;;;;-3.00;52.34;101641.94;7711404;32;37386;-76
2022/01/25 01:40:46;;;;;;;43.55;22.42;;;;;;;-3.26;53.73;101637.97;7711274;32;40018;-76
2022/01/25 01:49:15;;;;;;;44.40;20.83;;;;;;;-2.94;52.05;101625.41;7711038;32;37177;-76
2022/01/25 01:53:32;;;;;;;42.83;21.30;;;;;;;-3.03;52.14;101622.56;7711016;32;40172;-77
2022/01/25 01:57:49;;;;;;;35.95;20.92;;;;;;;-3.36;53.27;101615.75;7710680;32;39636;-76
2022/01/25 02:02:05;;;;;;;40.88;20.15;;;;;;;-3.05;52.43;101613.84;7710848;32;37935;-77
2022/01/25 02:06:22;;;;;;;44.67;21.40;;;;;;;-3.37;54.29;101613.22;7710631;32;37880;-77
2022/01/25 02:10:39;;;;;;;47.38;21.25;;;;;;;-3.07;53.93;101607.81;7710613;32;39338;-77
2022/01/25 02:14:56;;;;;;;44.45;22.27;;;;;;;-2.77;53.04;101600.69;7710539;32;40864;-77
2022/01/25 02:23:47;;;;;;;35.83;19.90;;;;;;;-3.18;54.33;101597.25;7710473;32;37746;-77
2022/01/25 02:28:03;;;;;;;30.90;17.83;;;;;;;-2.65;53.09;101588.03;7710315;32;39399;-78
2022/01/25 02:32:20;;;;;;;35.70;18.83;;;;;;;-2.76;53.56;101575.69;7710204;32;40084;-76
2022/01/25 02:36:36;;;;;;;32.78;18.80;;;;;;;-3.18;54.94;101567.91;7710032;32;38100;-79
2022/01/25 02:40:52;;;;;;;38.28;19.05;;;;;;;-2.70;53.69;101563.59;7710122;32;37988;-77
2022/01/25 02:45:15;;;;;;;32.85;18.27;;;;;;;-2.73;54.02;101563.88;7709939;32;40054;-78
2022/01/25 02:49:33;;;;;;;38.45;20.02;;;;;;;-2.46;53.40;101549.78;7709861;32;39892;-76
2022/01/25 02:53:49;;;;;;;37.38;19.55;;;;;;;-2.85;54.67;101555.97;7709634;32;36900;-77
2022/01/25 02:58:06;;;;;;;37.58;20.80;;;;;;;-2.84;55.18;101551.50;7709447;32;38135;-77
2022/01/25 03:02:23;;;;;;;38.88;19.95;;;;;;;-2.64;55.20;101552.31;7709553;32;39194;-76
2022/01/25 03:06:42;;;;;;;39.28;19.85;;;;;;;-2.59;55.16;101543.91;7708733;32;40888;-77
2022/01/25 03:10:59;;;;;;;31.77;18.05;;;;;;;-2.99;56.60;101547.56;7713022;32;38697;-77
2022/01/25 03:23:51;;;;;;;38.80;19.77;;;;;;;-2.47;56.00;101537.41;7711718;32;39813;-77
2022/01/25 03:28:07;;;;;;;41.83;20.98;;;;;;;-2.80;55.99;101538.72;7712687;32;37993;-77
2022/01/25 03:32:23;;;;;;;47.22;22.55;;;;;;;-2.95;56.19;101533.81;7712852;32;37253;-77
2022/01/25 03:36:39;;;;;;;33.30;19.73;;;;;;;-2.70;55.24;101528.87;7712508;32;39421;-77
2022/01/25 03:40:55;;;;;;;41.15;19.52;;;;;;;-2.70;55.86;101513.69;7711338;32;40108;-77
2022/01/25 03:45:18;;;;;;;34.55;18.30;;;;;;;-2.38;55.10;101509.84;7712442;32;39122;-78
2022/01/25 03:49:51;;;;;;;37.63;19.30;;;;;;;-2.46;55.70;101512.38;7712600;32;38179;-77
2022/01/25 03:54:07;;;;;;;37.78;18.67;;;;;;;-2.42;55.30;101492.41;7712528;32;40044;-78
2022/01/25 03:58:23;;;;;;;31.50;17.65;;;;;;;-2.12;54.23;101487.78;7712284;32;40020;-77
2022/01/25 04:02:48;;;;;;;34.95;17.60;;;;;;;-1.80;53.76;101486.53;7712263;32;37976;-77
2022/01/25 04:07:10;;;;;;;31.35;16.67;;;;;;;-1.91;54.29;101483.06;7712195;32;37924;-77
2022/01/25 04:11:26;;;;;;;35.05;16.70;;;;;;;-1.80;54.19;101479.34;7712428;32;39877;-77
2022/01/25 04:15:45;;;;;;;34.97;18.50;;;;;;;-1.72;54.16;101473.25;7712167;32;39787;-76
2022/01/25 04:29:12;;;;;;;30.42;17.55;;;;;;;-1.55;53.55;101447.53;7712116;32;39175;-77
2022/01/25 04:33:39;;;;;;;29.98;17.62;;;;;;;-1.18;52.63;101443.84;7711958;32;39887;-77
2022/01/25 04:51:59;;;;;;;34.90;18.48;;;;;;;-1.22;53.53;101426.44;7711789;32;39997;-77
2022/01/25 04:56:26;;;;;;;37.83;18.75;;;;;;;-1.49;54.19;101419.34;7711822;32;38007;-77
2022/01/25 05:00:43;;;;;;;34.28;18.45;;;;;;;-1.55;54.50;101421.62;7711725;32;37926;-77
2022/01/25 05:05:15;;;;;;;29.67;17.37;;;;;;;-1.22;53.73;101421.91;7711442;32;39445;-78
2022/01/25 05:09:33;;;;;;;33.17;18.27;;;;;;;-1.47;54.47;101420.84;7697811;32;40029;-76
2022/01/25 05:18:16;;;;;;;29.50;17.17;;;;;;;-1.44;53.31;101417.03;7711446;32;38058;-78
2022/01/25 05:22:32;;;;;;;33.85;18.30;;;;;;;-1.34;52.88;101407.09;7711494;32;39458;-77
2022/01/25 05:26:48;;;;;;;30.00;16.52;;;;;;;-1.31;52.80;101401.44;7711502;32;40063;-77
2022/01/25 05:31:04;;;;;;;36.72;17.27;;;;;;;-1.57;53.36;101412.91;7710763;32;38783;-77
2022/01/25 05:35:20;;;;;;;31.62;15.90;;;;;;;-1.26;53.01;101401.81;7711456;32;37226;-78
2022/01/25 05:39:38;;;;;;;37.20;16.35;;;;;;;-1.19;52.96;101405.56;7711190;32;40028;-77
2022/01/25 05:48:30;;;;;;;35.28;17.25;;;;;;;-1.18;52.13;101412.56;7710863;32;38769;-77
2022/01/25 05:52:46;;;;;;;31.40;15.13;;;;;;;-0.97;51.54;101414.06;7711037;32;38391;-78
2022/01/25 05:57:03;;;;;;;31.48;16.35;;;;;;;-1.05;51.40;101400.63;7710903;32;40083;-78
2022/01/25 06:01:19;;;;;;;39.10;15.85;;;;;;;-1.34;52.70;101391.88;7710803;32;40039;-77
2022/01/25 06:05:36;;;;;;;32.17;15.93;;;;;;;-1.27;52.29;101392.09;7710650;32;37985;-78
2022/01/25 06:09:52;;;;;;;31.87;17.37;;;;;;;-1.41;53.09;101392.66;7710780;32;37172;-78
2022/01/25 06:14:09;;;;;;;30.42;17.02;;;;;;;-1.42;53.22;101393.66;7710689;32;39368;-79
2022/01/25 06:18:25;;;;;;;31.92;15.55;;;;;;;-1.58;53.75;101389.81;7710611;32;39974;-76
2022/01/25 06:22:41;;;;;;;37.47;17.23;;;;;;;-1.63;52.92;101391.28;7710389;32;38690;-76
2022/01/25 06:26:57;;;;;;;36.30;17.42;;;;;;;-1.74;52.44;101374.47;7710455;32;37901;-76
2022/01/25 06:31:15;;;;;;;29.52;16.23;;;;;;;-1.18;51.61;101356.38;7710175;32;39321;-77
2022/01/25 06:35:32;;;;;;;29.50;16.77;;;;;;;-0.95;50.86;101363.88;7710244;32;40001;-77
2022/01/25 06:39:49;;;;;;;32.25;17.98;;;;;;;-1.54;52.71;101372.47;7710015;32;38560;-79
2022/01/25 06:44:06;;;;;;;36.63;19.12;;;;;;;-1.19;52.19;101370.75;7711731;32;37422;-77
2022/01/25 06:48:23;;;;;;;32.20;17.10;;;;;;;-1.06;52.47;101372.19;7713196;32;39256;-78
2022/01/25 06:52:41;;;;;;;32.63;16.20;;;;;;;-0.83;51.53;101373.34;7713221;32;39922;-78
2022/01/25 06:57:08;;;;;;;28.17;16.35;;;;;;;-0.87;51.91;101377.31;7713128;32;37701;-78
2022/01/25 07:01:25;;;;;;;29.50;15.45;;;;;;;-0.66;51.53;101368.06;7713147;32;37989;-78
2022/01/25 07:05:41;;;;;;;33.03;16.67;;;;;;;-0.68;52.04;101365.53;7712980;32;39457;-75
2022/01/25 07:09:57;;;;;;;32.13;17.40;;;;;;;-0.33;58.51;101368.22;7712851;32;40749;-79
2022/01/25 07:14:13;;;;;;;27.40;15.68;;;;;;;-0.16;53.03;101361.91;7712708;32;37905;-76
2022/01/25 07:18:30;;;;;;;34.88;16.30;;;;;;;-0.05;56.50;101367.00;7712672;32;38600;-75
2022/01/25 07:22:46;;;;;;;35.88;17.75;;;;;;;-0.01;50.61;101362.13;7712788;32;39044;-76
2022/01/25 07:27:02;;;;;;;32.15;18.60;;;;;;;-0.20;50.77;101360.56;7712649;32;39739;-76
2022/01/25 07:31:20;;;;;;;28.15;15.80;;;;;;;0.07;50.25;101366.66;7712592;32;38082;-75
2022/01/25 07:35:40;;;;;;;28.83;17.02;;;;;;;0.05;50.54;101368.66;7712601;32;37327;-75
2022/01/25 07:39:58;;;;;;;34.72;18.20;;;;;;;-0.06;50.69;101376.00;7712508;32;39526;-75
2022/01/25 07:44:17;;;;;;;38.13;18.77;;;;;;;0.26;50.05;101363.69;7712492;32;39581;-76
2022/01/25 07:48:34;;;;;;;35.72;17.37;;;;;;;0.20;50.50;101367.03;7712356;32;37726;-72
2022/01/25 07:52:54;;;;;;;39.35;18.90;;;;;;;0.03;50.62;101363.47;7704622;32;35603;-70
2022/01/25 07:57:10;;;;;;;33.03;18.95;;;;;;;0.11;50.68;101354.63;7682268;32;39569;-72
2022/01/25 08:01:26;;;;;;;32.00;17.90;;;;;;;-0.04;51.22;101357.91;7684640;32;39838;-71
2022/01/25 08:05:45;;;;;;;34.47;18.98;;;;;;;0.24;50.38;101351.44;7684496;32;37926;-70
2022/01/25 08:10:04;;;;;;;34.40;19.00;;;;;;;0.17;51.00;101346.75;7684842;32;38286;-72
2022/01/25 08:14:29;;;;;;;39.40;18.25;;;;;;;0.21;51.37;101336.53;7684733;32;38051;-71
2022/01/25 08:18:49;;;;;;;38.83;19.85;;;;;;;0.63;50.72;101335.53;7684619;32;39925;-72
2022/01/25 08:23:12;;;;;;;38.03;19.05;;;;;;;0.40;51.36;101334.50;7684574;32;36763;-71
2022/01/25 08:27:28;;;;;;;29.27;16.70;;;;;;;0.67;50.73;101336.88;7684423;32;37874;-71
2022/01/25 08:31:44;;;;;;;33.63;16.35;;;;;;;0.61;51.33;101334.87;7684670;32;40185;-71
2022/01/25 08:36:01;;;;;;;27.48;14.45;;;;;;;0.52;51.94;101335.88;7684391;32;40397;-71
2022/01/25 08:40:23;;;;;;;34.10;17.02;;;;;;;0.62;51.10;101317.75;7684907;32;36450;-71
2022/01/25 08:44:45;;;;;;;28.70;15.38;;;;;;;-0.26;53.79;101335.25;7684084;32;38062;-70
2022/01/25 08:49:01;;;;;;;29.95;17.37;;;;;;;-0.52;55.40;101321.09;7684533;32;40147;-69
2022/01/25 08:53:44;;;;;;;;;;;;;;;-1.20;57.44;101320.06;7684229;32;40272;-85
2022/01/25 08:58:02;;;;;;;32.92;15.52;;;;;;;-0.49;56.45;101316.25;7684512;32;37832;-84
2022/01/25 09:02:19;;;;;;;31.58;15.93;;;;;;;-0.20;55.76;101312.31;7685045;32;37937;-85
2022/01/25 09:06:36;;;;;;;32.33;16.17;;;;;;;-0.16;55.79;101313.66;7695441;32;40147;-83
2022/01/25 09:10:57;;;;;;;34.13;17.02;;;;;;;-0.87;58.60;101325.63;7684992;32;40761;-84
2022/01/25 09:15:13;;;;;;;34.25;15.65;;;;;;;-0.64;58.38;101318.72;7684957;32;38940;-85
2022/01/25 09:19:30;;;;;;;32.20;16.87;;;;;;;0.10;56.30;101323.44;7684769;32;37214;-84
2022/01/25 09:23:46;;;;;;;30.27;15.80;;;;;;;-0.31;57.48;101328.69;7684927;32;39118;-84
2022/01/25 09:28:03;;;;;;;33.38;16.02;;;;;;;0.08;56.23;101322.75;7684780;32;40015;-84
2022/01/25 09:32:19;;;;;;;30.98;15.55;;;;;;;0.53;54.94;101299.97;7684672;32;38637;-83
2022/01/25 09:36:35;;;;;;;31.23;16.33;;;;;;;-0.07;56.50;101296.59;7684683;32;38107;-84
2022/01/25 09:40:52;;;;;;;31.15;16.35;;;;;;;-0.02;56.57;101294.25;7684414;32;39292;-84
2022/01/25 09:45:09;;;;;;;33.28;16.73;;;;;;;0.18;56.59;101275.16;7684260;32;39689;-84
2022/01/25 09:49:25;;;;;;;37.75;16.70;;;;;;;0.29;55.82;101272.13;7684174;32;38073;-80
2022/01/25 09:53:41;;;;;;;29.25;16.60;;;;;;;0.53;55.83;101262.41;7684390;32;37911;-82
2022/01/25 09:57:58;;;;;;;31.20;16.58;;;;;;;0.67;54.53;101263.56;7684214;32;40588;-80
2022/01/25 10:02:34;;;;;;;33.25;15.95;;;;;;;0.84;54.06;101253.63;7684103;32;39700;-83
2022/01/25 10:06:50;;;;;;;32.35;17.85;;;;;;;1.23;53.25;101244.78;7693210;32;37896;-83
2022/01/25 10:11:13;;;;;;;31.23;17.10;;;;;;;1.24;53.38;101246.41;7683904;32;38189;-82
2022/01/25 10:15:29;;;;;;;32.10;16.30;;;;;;;1.58;52.39;101250.63;7683731;32;40120;-84
2022/01/25 10:20:03;;;;;;;34.97;17.33;;;;;;;1.43;52.33;101245.16;7683405;32;38514;-84
2022/01/25 10:24:29;;;;;;;35.03;17.70;;;;;;;1.22;54.19;101243.91;7683665;32;37953;-83
2022/01/25 10:28:45;;;;;;;32.63;18.73;;;;;;;1.21;54.12;101236.87;7694818;32;37957;-85
2022/01/25 10:33:01;;;;;;;33.67;18.25;;;;;;;1.53;53.93;101240.41;7683844;32;40119;-85
2022/01/25 10:37:24;;;;;;;34.13;17.73;;;;;;;1.70;53.27;101235.75;7683526;32;39924;-84
2022/01/25 10:41:42;;;;;;;31.62;16.25;;;;;;;1.52;53.04;101241.44;7683437;32;38654;-84
2022/01/25 10:46:28;;;;;;;30.92;18.05;;;;;;;1.18;53.95;101228.34;7683425;32;37207;-84
2022/01/25 10:50:46;;;;;;;30.40;16.73;;;;;;;1.73;52.60;101232.72;7682949;32;39469;-85
2022/01/25 10:55:05;;;;;;;32.53;16.65;;;;;;;1.66;52.85;101216.47;7683217;32;40674;-83
2022/01/25 10:59:29;;;;;;;32.30;16.15;;;;;;;1.21;53.94;101214.53;7682951;32;38705;-84
2022/01/25 11:03:45;;;;;;;32.75;16.15;;;;;;;1.55;53.41;101207.97;7683099;32;38043;-84
2022/01/25 11:08:31;;;;;;;31.83;16.52;;;;;;;1.37;53.41;101208.25;7682967;32;39206;-85
2022/01/25 11:13:22;;;;;;;30.90;16.30;;;;;;;1.41;54.28;101202.31;7669831;32;39884;-84
2022/01/25 11:17:27;;;;;;;30.27;16.85;;;;;;;1.42;52.73;101190.56;7679960;32;38236;-83
2022/01/25 11:21:45;;;;;;;30.65;15.48;;;;;;;2.11;51.80;101176.28;7682050;32;37261;-83
2022/01/25 11:26:03;;;;;;;28.95;16.40;;;;;;;2.39;50.71;101175.69;7682171;32;39173;-84
2022/01/25 11:30:20;;;;;;;31.37;16.75;;;;;;;2.21;51.07;101165.28;7684145;32;39049;-84
2022/01/25 11:34:38;;;;;;;37.50;18.08;;;;;;;1.90;52.67;101162.66;7671378;32;38615;-83
2022/01/25 11:38:55;;;;;;;33.00;17.15;;;;;;;2.36;53.86;101152.66;7672325;32;37249;-82
2022/01/25 11:43:16;;;;;;;31.02;17.48;;;;;;;2.28;51.87;101155.44;7671697;32;40058;-84
2022/01/25 11:47:36;;;;;;;30.25;16.75;;;;;;;2.40;51.95;101156.66;7671838;32;40768;-83
2022/01/25 11:52:12;;;;;;;32.28;17.85;;;;;;;2.66;50.88;101146.44;7659164;32;38674;-82
2022/01/25 11:56:29;;;;;;;34.95;17.92;;;;;;;2.26;52.69;101152.09;7671446;32;36776;-83
2022/01/25 12:00:56;;;;;;;36.30;18.23;;;;;;;1.65;54.65;101144.88;7685222;32;40224;-84
2022/01/25 12:05:25;;;;;;;34.58;18.55;;;;;;;2.67;51.97;101148.13;7671565;32;40085;-82
2022/01/25 12:09:52;;;;;;;33.58;16.10;;;;;;;2.39;52.37;101135.31;7671594;32;37907;-82
2022/01/25 12:14:25;;;;;;;35.42;19.85;;;;;;;2.57;51.95;101116.94;7685677;32;36960;-80
2022/01/25 12:19:02;;;;;;;34.73;18.80;;;;;;;2.61;51.75;101099.38;7685540;32;40096;-82
2022/01/25 12:23:39;;;;;;;38.30;20.88;;;;;;;3.25;51.19;101097.00;7685985;32;40774;-82
2022/01/25 12:28:00;;;;;;;34.45;19.30;;;;;;;2.37;52.84;101111.25;7685362;32;37965;-83
2022/01/25 12:32:18;;;;;;;34.05;18.73;;;;;;;3.33;51.08;101119.28;7671787;32;37943;-83
2022/01/25 12:36:35;;;;;;;34.72;19.02;;;;;;;3.73;49.72;101113.44;7685081;32;39887;-83
2022/01/25 12:41:01;;;;;;;33.80;18.75;;;;;;;3.74;49.56;101113.25;7683970;32;40524;-83
2022/01/25 12:45:18;;;;;;;31.42;18.20;;;;;;;3.55;50.11;101108.47;7684918;32;37990;-83
2022/01/25 12:49:42;;;;;;;38.25;18.73;;;;;;;3.85;49.87;101094.87;7685005;32;37182;-82
2022/01/25 12:54:00;;;;;;;37.22;18.90;;;;;;;2.96;52.13;101091.50;7685063;32;39203;-82
2022/01/25 12:58:18;;;;;;;28.87;18.08;;;;;;;3.12;52.35;101086.91;7684907;32;39726;-82
2022/01/25 13:02:34;;;;;;;34.92;19.33;;;;;;;3.07;52.75;101076.72;7684853;32;37811;-82
2022/01/25 13:06:52;;;;;;;33.35;19.87;;;;;;;2.91;53.78;101077.75;7684877;32;37287;-82
2022/01/25 13:11:28;;;;;;;33.58;19.95;;;;;;;2.91;54.44;101064.28;7685140;32;38613;-83
2022/01/25 13:20:03;;;;;;;38.67;21.08;;;;;;;2.45;56.55;101061.91;7684782;32;38598;-83
2022/01/25 13:24:22;;;;;;;37.25;20.65;;;;;;;2.66;56.29;101049.50;7684850;32;37909;-83
2022/01/25 13:28:54;;;;;;;39.88;21.55;;;;;;;2.31;57.69;101051.97;7683578;32;39195;-83
2022/01/25 13:33:18;;;;;;;36.10;22.30;;;;;;;2.29;57.56;101048.62;7684802;32;40843;-83
2022/01/25 13:37:34;;;;;;;35.38;20.95;;;;;;;2.24;57.80;101047.34;7684701;32;38686;-83
2022/01/25 13:41:53;;;;;;;34.97;20.60;;;;;;;2.10;58.68;101040.06;7684701;32;37239;-82
2022/01/25 13:46:13;;;;;;;37.65;20.85;;;;;;;2.47;57.84;101030.25;7684626;32;39584;-82
2022/01/25 13:50:30;;;;;;;36.75;19.90;;;;;;;1.97;60.09;101032.66;7684477;32;39884;-83
2022/01/25 13:54:46;;;;;;;41.65;21.87;;;;;;;2.48;58.86;101026.50;7684221;32;37709;-83
2022/01/25 13:59:04;;;;;;;36.03;20.85;;;;;;;2.31;59.30;101035.81;7670841;32;37596;-83
2022/01/25 14:03:29;;;;;;;41.72;21.05;;;;;;;2.19;59.62;101033.59;7684389;32;39989;-83
2022/01/25 14:07:54;;;;;;;38.25;20.83;;;;;;;2.46;59.02;101027.72;7684233;32;39743;-83
2022/01/25 14:25:43;;;;;;;42.97;21.73;;;;;;;1.80;61.20;101023.09;7683945;32;39730;-83
2022/01/25 14:29:59;;;;;;;42.22;22.02;;;;;;;2.25;60.13;101027.47;7683801;32;36852;-83
2022/01/25 14:34:18;;;;;;;44.00;21.58;;;;;;;2.27;60.59;101029.13;7683764;32;37260;-83
2022/01/25 14:38:37;;;;;;;47.38;22.08;;;;;;;2.08;61.08;101027.84;7670302;32;38324;-82
2022/01/25 14:42:55;;;;;;;45.28;23.25;;;;;;;1.48;62.81;101022.38;7683448;32;40048;-83
2022/01/25 14:47:13;;;;;;;45.78;24.20;;;;;;;1.16;63.84;101016.28;7683082;32;38905;-83
2022/01/25 14:51:53;;;;;;;49.92;23.92;;;;;;;1.09;65.14;101026.91;7677851;32;36310;-83
2022/01/25 14:56:12;;;;;;;47.95;24.73;;;;;;;1.31;64.73;101035.12;7682847;32;40166;-83
2022/01/25 15:00:29;;;;;;;52.60;25.80;;;;;;;1.64;63.31;101042.94;7682242;32;40766;-83
2022/01/25 15:04:52;;;;;;;45.90;24.75;;;;;;;1.71;62.49;101034.94;7683707;32;38071;-82
2022/01/25 15:09:08;;;;;;;50.38;26.52;;;;;;;1.79;62.99;101041.06;7685967;32;37201;-82
2022/01/25 15:13:27;;;;;;;51.22;24.10;;;;;;;1.98;62.25;101036.19;7671750;32;39380;-83
2022/01/25 15:17:47;;;;;;;47.58;25.48;;;;;;;1.76;62.84;101048.69;7686234;32;40062;-82
2022/01/25 15:22:04;;;;;;;51.53;26.83;;;;;;;1.71;63.29;101038.50;7685321;32;37820;-83
2022/01/25 15:26:20;;;;;;;53.63;25.52;;;;;;;1.69;63.99;101032.44;7685853;32;37025;-83
2022/01/25 15:30:36;;;;;;;51.60;26.20;;;;;;;1.86;63.35;101033.13;7685851;32;39335;-82
2022/01/25 15:34:53;;;;;;;49.70;26.33;;;;;;;2.03;61.85;101028.41;7685341;32;40700;-78
2022/01/25 15:39:10;;;;;;;52.22;26.15;;;;;;;2.19;62.11;101028.22;7685903;32;37991;-82
2022/01/25 15:43:36;;;;;;;49.70;26.30;;;;;;;1.57;64.25;101025.84;7685104;32;37968;-83
2022/01/25 15:47:53;;;;;;;54.72;27.73;;;;;;;1.70;64.98;101034.13;7686045;32;39359;-82
2022/01/25 15:52:09;;;;;;;51.90;27.40;;;;;;;1.69;64.56;101029.75;7684971;32;39993;-83
2022/01/25 15:56:26;;;;;;;53.50;27.13;;;;;;;1.47;65.14;101034.16;7685302;32;37999;-81
2022/01/25 16:00:47;;;;;;;52.60;27.45;;;;;;;1.23;67.03;101027.16;7685546;32;38264;-82
2022/01/25 16:05:03;;;;;;;53.50;29.52;;;;;;;1.84;65.03;101030.59;7684439;32;40112;-82
2022/01/25 16:09:22;;;;;;;53.58;26.65;;;;;;;1.87;64.57;101011.41;7683972;32;40159;-82
2022/01/25 16:13:39;;;;;;;49.30;26.45;;;;;;;2.17;63.89;101008.72;7683337;32;37930;-82
2022/01/25 16:17:55;;;;;;;52.50;27.87;;;;;;;1.83;65.06;101020.88;7683668;32;37400;-82
2022/01/25 16:22:11;;;;;;;56.10;28.48;;;;;;;2.15;64.14;101016.16;7683493;32;39453;-83
2022/01/25 16:26:28;;;;;;;52.72;28.67;;;;;;;1.80;65.83;101015.88;7683073;32;40472;-82
2022/01/25 16:30:44;;;;;;;55.65;29.33;;;;;;;2.03;65.03;101023.03;7683395;32;38186;-82
2022/01/25 16:35:00;;;;;;;55.17;26.42;;;;;;;2.46;63.72;101014.28;7683054;32;37816;-82
2022/01/25 16:39:17;;;;;;;58.33;27.83;;;;;;;2.36;64.12;101014.56;7683457;32;40073;-83
2022/01/25 16:43:33;;;;;;;56.17;27.48;;;;;;;2.77;62.82;101014.81;7682583;32;40699;-82
2022/01/25 16:47:49;;;;;;;54.05;28.62;;;;;;;2.10;64.54;101006.97;7683223;32;37572;-83
2022/01/25 16:52:06;;;;;;;56.85;27.58;;;;;;;2.38;63.73;101015.19;7683099;32;37261;-83
2022/01/25 16:56:22;;;;;;;62.58;31.33;;;;;;;2.77;62.97;101005.94;7681767;32;40001;-83
2022/01/25 17:00:39;;;;;;;57.75;28.45;;;;;;;2.31;65.01;101008.91;7653978;32;40784;-83
2022/01/25 17:04:56;;;;;;;61.33;28.58;;;;;;;2.70;63.03;101005.03;7660153;32;134214;-82
2022/01/25 17:09:12;;;;;;;50.95;27.62;;;;;;;2.58;64.28;100996.59;7684683;32;38115;-83
2022/01/25 17:13:28;;;;;;;62.03;31.65;;;;;;;2.34;64.90;101005.84;7684356;32;38976;-83
2022/01/25 17:17:45;;;;;;;58.80;28.40;;;;;;;2.39;64.74;100998.03;7685045;32;39963;-82
2022/01/25 17:22:02;;;;;;;61.15;29.52;;;;;;;2.12;65.87;100999.53;7682719;32;38722;-82
2022/01/25 17:26:22;;;;;;;66.45;30.90;;;;;;;2.27;66.45;101011.13;7684211;32;37466;-82
2022/01/25 17:30:39;;;;;;;64.62;28.83;;;;;;;2.24;66.32;101004.28;7684080;32;39964;-83
2022/01/25 17:34:55;;;;;;;51.85;28.17;;;;;;;2.44;65.62;101003.69;7684551;32;40934;-82
2022/01/25 17:39:13;;;;;;;57.95;28.33;;;;;;;2.89;64.29;101001.69;7684278;32;37781;-82
2022/01/25 17:43:29;;;;;;;52.92;27.95;;;;;;;2.65;65.40;101002.06;7683834;32;37327;-82
2022/01/25 17:47:46;;;;;;;53.97;26.35;;;;;;;2.69;64.38;101000.66;7684624;32;39332;-82
2022/01/25 17:52:03;;;;;;;53.75;27.67;;;;;;;2.90;64.22;100995.31;7683689;32;40029;-82
2022/01/25 17:56:21;;;;;;;55.85;27.08;;;;;;;3.19;63.16;100997.03;7684441;32;36896;-82
2022/01/25 18:00:37;;;;;;;54.97;26.95;;;;;;;2.65;65.34;101010.16;7683816;32;37214;-83
2022/01/25 18:05:11;;;;;;;56.20;25.23;;;;;;;2.93;64.32;101003.00;7683729;32;39317;-82
2022/01/25 18:09:27;;;;;;;52.20;25.48;;;;;;;3.51;62.71;100993.97;7676980;32;39431;-82
2022/01/25 18:13:43;;;;;;;44.17;23.17;;;;;;;3.14;64.08;100987.84;7683399;32;38009;-81
2022/01/25 18:18:00;;;;;;;48.60;23.55;;;;;;;3.26;64.01;100985.47;7684115;32;37992;-81
2022/01/25 18:23:10;;;;;;;48.85;23.92;;;;;;;3.44;63.21;100991.22;7683365;32;39422;-81
2022/01/25 18:26:55;;;;;;;46.50;25.65;;;;;;;2.96;64.96;100989.13;7678597;32;39885;-82
2022/01/25 18:31:12;;;;;;;55.05;25.45;;;;;;;3.40;63.52;100984.56;7683459;32;38172;-81
2022/01/25 18:35:29;;;;;;;53.20;25.20;;;;;;;3.16;64.55;100991.19;7681880;32;37203;-82
2022/01/25 18:39:45;;;;;;;49.88;22.95;;;;;;;3.44;63.96;100988.53;7682314;32;39215;-84
2022/01/25 18:44:02;;;;;;;51.40;24.23;;;;;;;3.41;63.75;100985.38;7681556;32;39840;-83
2022/01/25 18:48:20;;;;;;;50.58;24.73;;;;;;;2.99;65.19;100991.44;7683288;32;38563;-82
2022/01/25 18:52:36;;;;;;;52.95;23.83;;;;;;;3.27;64.81;100985.25;7683029;32;38186;-82
2022/01/25 18:56:52;;;;;;;39.53;20.75;;;;;;;3.53;63.67;100978.41;7682576;32;39899;-82
2022/01/25 19:01:13;;;;;;;44.75;21.70;;;;;;;3.63;63.48;100986.19;7681784;32;39846;-82
2022/01/25 19:05:30;;;;;;;40.35;21.40;;;;;;;3.81;62.67;100975.72;7682659;32;38732;-83
2022/01/25 19:09:47;;;;;;;46.88;24.27;;;;;;;3.67;63.23;100977.47;7682938;32;37357;-82
2022/01/25 19:14:03;;;;;;;47.17;23.48;;;;;;;3.62;63.56;100962.91;7682881;32;39452;-82
2022/01/25 19:18:19;;;;;;;47.97;22.70;;;;;;;3.43;63.75;100975.22;7682662;32;40980;-83
2022/01/25 19:22:35;;;;;;;50.60;22.67;;;;;;;2.55;67.36;100978.97;7682460;32;37947;-83
2022/01/25 19:26:54;;;;;;;39.53;21.08;;;;;;;3.53;64.16;100973.84;7682544;32;38017;-82
2022/01/25 19:31:11;;;;;;;44.63;20.67;;;;;;;3.72;63.53;100975.03;7682553;32;40132;-83
2022/01/25 19:35:27;;;;;;;42.67;22.05;;;;;;;3.68;63.20;100967.53;7682323;32;39989;-83
2022/01/25 19:39:47;;;;;;;47.03;21.58;;;;;;;3.76;63.03;100976.31;7682154;32;38046;-82
2022/01/25 19:44:04;;;;;;;46.67;21.50;;;;;;;3.86;62.92;100965.13;7682158;32;37906;-83
2022/01/25 19:48:20;;;;;;;42.10;20.52;;;;;;;3.73;62.81;100960.50;7682107;32;39045;-82
2022/01/25 19:52:44;;;;;;;42.70;19.73;;;;;;;3.78;63.17;100964.47;7685609;32;40710;-83
2022/01/25 19:57:07;;;;;;;40.72;19.50;;;;;;;3.81;62.88;100961.38;7685821;32;37950;-83
2022/01/25 20:01:23;;;;;;;46.40;22.90;;;;;;;3.99;62.75;100968.97;7685763;32;38076;-83
2022/01/25 20:05:39;;;;;;;41.20;20.25;;;;;;;4.02;62.30;100965.84;7685482;32;40086;-83
2022/01/25 20:09:56;;;;;;;40.97;20.98;;;;;;;4.24;61.84;100963.88;7685593;32;39883;-83
2022/01/25 20:14:12;;;;;;;40.45;20.98;;;;;;;3.97;62.39;100976.41;7668664;32;38565;-84
2022/01/25 20:18:30;;;;;;;41.83;20.67;;;;;;;4.26;61.80;100975.31;7678061;32;37186;-83
2022/01/25 20:22:54;;;;;;;39.03;20.65;;;;;;;4.24;61.86;100969.28;7684685;32;39182;-83
2022/01/25 20:27:19;;;;;;;38.03;19.95;;;;;;;4.37;61.07;100968.53;7684539;32;39792;-84
2022/01/25 20:31:37;;;;;;;39.97;18.05;;;;;;;4.36;60.96;100964.97;7672601;32;38549;-84
2022/01/25 20:35:53;;;;;;;34.88;19.50;;;;;;;4.11;61.80;100965.50;7684345;32;37301;-83
2022/01/25 20:40:10;;;;;;;37.50;19.67;;;;;;;4.44;60.72;100964.78;7684930;32;39055;-84
2022/01/25 20:44:27;;;;;;;43.38;20.85;;;;;;;4.28;61.39;100963.28;7683991;32;40833;-82
2022/01/25 20:48:43;;;;;;;32.72;17.98;;;;;;;4.37;61.16;100965.81;7684327;32;37479;-81
2022/01/25 20:52:59;;;;;;;41.83;20.92;;;;;;;4.61;60.24;100967.97;7684601;32;37748;-81
2022/01/25 20:57:15;;;;;;;38.53;19.30;;;;;;;4.31;61.18;100975.53;7683929;32;39252;-80
2022/01/25 21:01:34;;;;;;;44.60;21.20;;;;;;;4.47;60.57;100972.50;7683594;32;40960;-80
2022/01/25 21:10:26;;;;;;;40.60;20.33;;;;;;;4.60;60.06;100977.09;7684590;32;36616;-81
2022/01/25 21:14:43;;;;;;;45.45;21.65;;;;;;;4.60;60.29;100976.28;7683615;32;39072;-82
2022/01/25 21:19:00;;;;;;;41.83;21.15;;;;;;;4.51;60.59;100973.75;7684231;32;40817;-80
2022/01/25 21:23:16;;;;;;;46.08;21.23;;;;;;;4.37;60.92;100966.66;7670580;32;38737;-81
2022/01/25 21:27:32;;;;;;;46.85;22.10;;;;;;;4.14;62.10;100962.41;7670077;32;38018;-81
2022/01/25 21:31:49;;;;;;;49.22;21.48;;;;;;;3.85;63.03;100957.28;7684282;32;39448;-81
2022/01/25 21:36:05;;;;;;;43.80;22.27;;;;;;;3.92;62.87;100952.75;7683332;32;40132;-80
2022/01/25 21:40:22;;;;;;;47.95;22.30;;;;;;;3.95;62.53;100947.78;7683666;32;38065;-81
2022/01/25 21:44:40;;;;;;;43.67;22.17;;;;;;;3.65;63.29;100946.34;7683991;32;37326;-81
2022/01/25 21:48:56;;;;;;;53.28;23.58;;;;;;;4.07;62.13;100945.34;7683428;32;40578;-80